sensor_id;sensor_type;location;lat;lon;timestamp;P1;durP1;ratioP1;P2;durP2;ratioP2
9034;SDS011;4552;43.422;24.592;2023-12-20T00:28:24;7.43;;;4.20;;
9034;SDS011;4552;43.422;24.592;2023-12-20T00:30:51;5.30;;;4.33;;
9034;SDS011;4552;43.422;24.592;2023-12-20T00:33:19;4.67;;;4.03;;
9034;SDS011;4552;43.422;24.592;2023-12-20T00:35:46;5.43;;;4.03;;
9034;SDS011;4552;43.422;24.592;2023-12-20T00:38:13;5.07;;;3.73;;
9034;SDS011;4552;43.422;24.592;2023-12-20T00:40:40;10.53;;;3.97;;
9034;SDS011;4552;43.422;24.592;2023-12-20T00:43:09;6.10;;;4.20;;
9034;SDS011;4552;43.422;24.592;2023-12-20T00:45:36;8.00;;;3.73;;
9034;SDS011;4552;43.422;24.592;2023-12-20T00:48:04;4.50;;;3.47;;
9034;SDS011;4552;43.422;24.592;2023-12-20T00:50:31;5.13;;;3.63;;
9034;SDS011;4552;43.422;24.592;2023-12-20T00:52:58;6.23;;;3.67;;
9034;SDS011;4552;43.422;24.592;2023-12-20T00:55:25;6.23;;;3.83;;
9034;SDS011;4552;43.422;24.592;2023-12-20T00:57:53;4.73;;;3.17;;
9034;SDS011;4552;43.422;24.592;2023-12-20T01:00:21;4.27;;;3.60;;
9034;SDS011;4552;43.422;24.592;2023-12-20T01:02:48;4.97;;;3.30;;
9034;SDS011;4552;43.422;24.592;2023-12-20T01:05:17;5.60;;;3.00;;
9034;SDS011;4552;43.422;24.592;2023-12-20T01:07:44;7.70;;;3.73;;
9034;SDS011;4552;43.422;24.592;2023-12-20T01:10:11;3.70;;;2.90;;
9034;SDS011;4552;43.422;24.592;2023-12-20T01:12:38;4.30;;;2.40;;
9034;SDS011;4552;43.422;24.592;2023-12-20T01:15:06;4.33;;;2.63;;
9034;SDS011;4552;43.422;24.592;2023-12-20T01:17:34;3.00;;;2.70;;
9034;SDS011;4552;43.422;24.592;2023-12-20T01:20:01;6.03;;;3.13;;
9034;SDS011;4552;43.422;24.592;2023-12-20T01:22:29;4.20;;;3.00;;
9034;SDS011;4552;43.422;24.592;2023-12-20T01:24:56;4.33;;;3.33;;
9034;SDS011;4552;43.422;24.592;2023-12-20T01:27:27;3.00;;;2.53;;
9034;SDS011;4552;43.422;24.592;2023-12-20T01:29:56;2.83;;;2.33;;
9034;SDS011;4552;43.422;24.592;2023-12-20T01:32:23;5.40;;;2.83;;
9034;SDS011;4552;43.422;24.592;2023-12-20T01:34:51;3.57;;;2.83;;
9034;SDS011;4552;43.422;24.592;2023-12-20T01:37:17;5.83;;;3.43;;
9034;SDS011;4552;43.422;24.592;2023-12-20T01:39:44;4.73;;;3.23;;
9034;SDS011;4552;43.422;24.592;2023-12-20T01:42:11;4.93;;;3.07;;
9034;SDS011;4552;43.422;24.592;2023-12-20T01:44:38;4.77;;;3.30;;
9034;SDS011;4552;43.422;24.592;2023-12-20T01:47:06;3.77;;;3.00;;
9034;SDS011;4552;43.422;24.592;2023-12-20T01:49:35;5.17;;;3.57;;
9034;SDS011;4552;43.422;24.592;2023-12-20T01:52:04;4.60;;;3.10;;
9034;SDS011;4552;43.422;24.592;2023-12-20T01:54:32;3.63;;;2.67;;
9034;SDS011;4552;43.422;24.592;2023-12-20T01:57:00;5.27;;;3.60;;
9034;SDS011;4552;43.422;24.592;2023-12-20T01:59:28;3.87;;;2.97;;
9034;SDS011;4552;43.422;24.592;2023-12-20T02:01:56;6.40;;;3.83;;
9034;SDS011;4552;43.422;24.592;2023-12-20T02:04:23;5.07;;;3.73;;
9034;SDS011;4552;43.422;24.592;2023-12-20T02:06:52;5.60;;;3.60;;
9034;SDS011;4552;43.422;24.592;2023-12-20T02:09:20;5.63;;;4.00;;
9034;SDS011;4552;43.422;24.592;2023-12-20T02:11:49;9.27;;;4.53;;
9034;SDS011;4552;43.422;24.592;2023-12-20T02:38:22;6.77;;;4.53;;
9034;SDS011;4552;43.422;24.592;2023-12-20T02:40:49;9.30;;;4.73;;
9034;SDS011;4552;43.422;24.592;2023-12-20T02:43:16;7.10;;;4.50;;
9034;SDS011;4552;43.422;24.592;2023-12-20T02:45:43;6.27;;;4.50;;
9034;SDS011;4552;43.422;24.592;2023-12-20T02:48:10;10.73;;;5.07;;
9034;SDS011;4552;43.422;24.592;2023-12-20T02:50:37;4.60;;;3.77;;
9034;SDS011;4552;43.422;24.592;2023-12-20T02:53:05;8.10;;;5.13;;
9034;SDS011;4552;43.422;24.592;2023-12-20T02:55:32;8.50;;;5.27;;
9034;SDS011;4552;43.422;24.592;2023-12-20T02:57:59;7.63;;;5.07;;
9034;SDS011;4552;43.422;24.592;2023-12-20T03:06:51;6.13;;;4.80;;
9034;SDS011;4552;43.422;24.592;2023-12-20T03:09:20;8.83;;;5.47;;
9034;SDS011;4552;43.422;24.592;2023-12-20T03:11:47;6.83;;;5.17;;
9034;SDS011;4552;43.422;24.592;2023-12-20T03:14:14;8.77;;;5.00;;
9034;SDS011;4552;43.422;24.592;2023-12-20T03:16:41;9.90;;;5.43;;
9034;SDS011;4552;43.422;24.592;2023-12-20T03:19:08;6.90;;;5.20;;
9034;SDS011;4552;43.422;24.592;2023-12-20T03:21:35;5.90;;;4.27;;
9034;SDS011;4552;43.422;24.592;2023-12-20T03:24:04;10.37;;;4.93;;
9034;SDS011;4552;43.422;24.592;2023-12-20T03:26:33;7.27;;;5.07;;
9034;SDS011;4552;43.422;24.592;2023-12-20T03:28:59;8.93;;;5.47;;
9034;SDS011;4552;43.422;24.592;2023-12-20T03:31:26;10.17;;;5.27;;
9034;SDS011;4552;43.422;24.592;2023-12-20T03:33:53;8.90;;;5.13;;
9034;SDS011;4552;43.422;24.592;2023-12-20T03:36:20;8.60;;;5.50;;
9034;SDS011;4552;43.422;24.592;2023-12-20T03:38:47;9.23;;;5.30;;
9034;SDS011;4552;43.422;24.592;2023-12-20T03:41:13;8.40;;;4.67;;
9034;SDS011;4552;43.422;24.592;2023-12-20T03:43:42;9.50;;;5.23;;
9034;SDS011;4552;43.422;24.592;2023-12-20T04:33:26;6.40;;;3.93;;
9034;SDS011;4552;43.422;24.592;2023-12-20T04:35:53;7.83;;;4.67;;
9034;SDS011;4552;43.422;24.592;2023-12-20T04:38:20;5.73;;;4.17;;
9034;SDS011;4552;43.422;24.592;2023-12-20T04:40:47;5.10;;;4.13;;
9034;SDS011;4552;43.422;24.592;2023-12-20T04:43:14;6.30;;;3.93;;
9034;SDS011;4552;43.422;24.592;2023-12-20T04:45:41;9.20;;;4.60;;
9034;SDS011;4552;43.422;24.592;2023-12-20T04:48:08;7.27;;;4.37;;
9034;SDS011;4552;43.422;24.592;2023-12-20T04:50:36;6.90;;;4.33;;
9034;SDS011;4552;43.422;24.592;2023-12-20T04:53:03;7.00;;;4.40;;
9034;SDS011;4552;43.422;24.592;2023-12-20T04:55:30;6.17;;;4.37;;
9034;SDS011;4552;43.422;24.592;2023-12-20T04:57:57;7.10;;;4.43;;
9034;SDS011;4552;43.422;24.592;2023-12-20T05:10:02;11.37;;;7.27;;
9034;SDS011;4552;43.422;24.592;2023-12-20T05:12:30;13.20;;;6.40;;
9034;SDS011;4552;43.422;24.592;2023-12-20T05:14:57;10.37;;;6.43;;
9034;SDS011;4552;43.422;24.592;2023-12-20T05:17:24;9.10;;;6.03;;
9034;SDS011;4552;43.422;24.592;2023-12-20T05:19:51;9.17;;;5.27;;
9034;SDS011;4552;43.422;24.592;2023-12-20T05:22:18;10.83;;;6.07;;
9034;SDS011;4552;43.422;24.592;2023-12-20T05:24:47;8.40;;;6.00;;
9034;SDS011;4552;43.422;24.592;2023-12-20T05:27:14;9.93;;;5.90;;
9034;SDS011;4552;43.422;24.592;2023-12-20T05:29:41;8.23;;;5.40;;
9034;SDS011;4552;43.422;24.592;2023-12-20T05:32:08;9.37;;;5.90;;
9034;SDS011;4552;43.422;24.592;2023-12-20T05:34:34;12.10;;;6.57;;
9034;SDS011;4552;43.422;24.592;2023-12-20T05:37:01;13.57;;;6.53;;
9034;SDS011;4552;43.422;24.592;2023-12-20T05:39:28;9.47;;;6.17;;
9034;SDS011;4552;43.422;24.592;2023-12-20T05:41:57;8.80;;;6.50;;
9034;SDS011;4552;43.422;24.592;2023-12-20T05:44:24;16.10;;;6.53;;
9034;SDS011;4552;43.422;24.592;2023-12-20T05:46:51;8.30;;;6.00;;
9034;SDS011;4552;43.422;24.592;2023-12-20T05:49:18;10.37;;;6.30;;
9034;SDS011;4552;43.422;24.592;2023-12-20T05:51:45;10.02;;;6.55;;
9034;SDS011;4552;43.422;24.592;2023-12-20T05:54:12;11.37;;;6.43;;
9034;SDS011;4552;43.422;24.592;2023-12-20T05:56:39;11.70;;;7.57;;
9034;SDS011;4552;43.422;24.592;2023-12-20T06:09:13;27.07;;;12.80;;
9034;SDS011;4552;43.422;24.592;2023-12-20T06:11:50;15.03;;;8.93;;
9034;SDS011;4552;43.422;24.592;2023-12-20T06:27:46;8.70;;;6.13;;
9034;SDS011;4552;43.422;24.592;2023-12-20T06:30:12;9.70;;;6.07;;
9034;SDS011;4552;43.422;24.592;2023-12-20T06:32:39;11.87;;;7.17;;
9034;SDS011;4552;43.422;24.592;2023-12-20T06:35:08;11.67;;;6.63;;
9034;SDS011;4552;43.422;24.592;2023-12-20T06:37:35;8.53;;;6.00;;
9034;SDS011;4552;43.422;24.592;2023-12-20T06:40:02;11.40;;;6.57;;
9034;SDS011;4552;43.422;24.592;2023-12-20T06:42:30;9.47;;;6.17;;
9034;SDS011;4552;43.422;24.592;2023-12-20T07:25:17;17.17;;;12.33;;
9034;SDS011;4552;43.422;24.592;2023-12-20T07:27:45;21.50;;;12.93;;
9034;SDS011;4552;43.422;24.592;2023-12-20T07:40:53;14.23;;;8.40;;
9034;SDS011;4552;43.422;24.592;2023-12-20T07:43:20;16.73;;;10.50;;
9034;SDS011;4552;43.422;24.592;2023-12-20T07:45:47;16.27;;;10.90;;
9034;SDS011;4552;43.422;24.592;2023-12-20T07:48:14;21.60;;;14.23;;
9034;SDS011;4552;43.422;24.592;2023-12-20T07:50:41;22.83;;;13.27;;
9034;SDS011;4552;43.422;24.592;2023-12-20T07:53:08;29.53;;;16.27;;
9034;SDS011;4552;43.422;24.592;2023-12-20T07:55:35;29.03;;;17.17;;
9034;SDS011;4552;43.422;24.592;2023-12-20T07:58:03;34.37;;;18.40;;
9034;SDS011;4552;43.422;24.592;2023-12-20T08:00:30;41.63;;;19.70;;
9034;SDS011;4552;43.422;24.592;2023-12-20T08:02:57;35.07;;;18.73;;
9034;SDS011;4552;43.422;24.592;2023-12-20T08:05:24;33.27;;;18.73;;
9034;SDS011;4552;43.422;24.592;2023-12-20T08:07:51;33.47;;;19.50;;
9034;SDS011;4552;43.422;24.592;2023-12-20T08:10:19;34.03;;;19.37;;
9034;SDS011;4552;43.422;24.592;2023-12-20T08:12:46;36.10;;;19.27;;
9034;SDS011;4552;43.422;24.592;2023-12-20T08:15:14;36.40;;;18.17;;
9034;SDS011;4552;43.422;24.592;2023-12-20T08:17:41;34.83;;;19.20;;
9034;SDS011;4552;43.422;24.592;2023-12-20T08:20:08;32.40;;;18.40;;
9034;SDS011;4552;43.422;24.592;2023-12-20T08:22:36;30.73;;;17.37;;
9034;SDS011;4552;43.422;24.592;2023-12-20T08:25:03;29.87;;;16.20;;
9034;SDS011;4552;43.422;24.592;2023-12-20T08:27:30;32.53;;;19.47;;
9034;SDS011;4552;43.422;24.592;2023-12-20T08:29:57;34.30;;;19.40;;
9034;SDS011;4552;43.422;24.592;2023-12-20T08:32:26;35.30;;;19.63;;
9034;SDS011;4552;43.422;24.592;2023-12-20T08:34:53;34.27;;;19.37;;
9034;SDS011;4552;43.422;24.592;2023-12-20T08:37:20;29.47;;;17.63;;
9034;SDS011;4552;43.422;24.592;2023-12-20T08:39:47;35.47;;;19.37;;
9034;SDS011;4552;43.422;24.592;2023-12-20T09:24:18;16.73;;;10.13;;
9034;SDS011;4552;43.422;24.592;2023-12-20T09:26:45;17.37;;;10.27;;
9034;SDS011;4552;43.422;24.592;2023-12-20T09:29:12;17.87;;;9.87;;
9034;SDS011;4552;43.422;24.592;2023-12-20T09:31:40;15.40;;;9.50;;
9034;SDS011;4552;43.422;24.592;2023-12-20T09:34:09;14.87;;;9.73;;
9034;SDS011;4552;43.422;24.592;2023-12-20T09:36:37;13.13;;;9.67;;
9034;SDS011;4552;43.422;24.592;2023-12-20T09:39:07;16.57;;;10.53;;
9034;SDS011;4552;43.422;24.592;2023-12-20T09:41:36;15.70;;;10.47;;
9034;SDS011;4552;43.422;24.592;2023-12-20T09:44:06;14.77;;;9.40;;
9034;SDS011;4552;43.422;24.592;2023-12-20T09:46:37;15.70;;;9.93;;
9034;SDS011;4552;43.422;24.592;2023-12-20T09:49:06;11.97;;;8.50;;
9034;SDS011;4552;43.422;24.592;2023-12-20T09:51:34;12.33;;;7.33;;
9034;SDS011;4552;43.422;24.592;2023-12-20T09:54:02;13.47;;;8.53;;
9034;SDS011;4552;43.422;24.592;2023-12-20T09:56:30;17.40;;;10.00;;
9034;SDS011;4552;43.422;24.592;2023-12-20T09:58:59;14.97;;;10.57;;
9034;SDS011;4552;43.422;24.592;2023-12-20T10:01:26;18.50;;;10.50;;
9034;SDS011;4552;43.422;24.592;2023-12-20T10:03:55;15.97;;;10.67;;
9034;SDS011;4552;43.422;24.592;2023-12-20T10:06:23;15.40;;;9.93;;
9034;SDS011;4552;43.422;24.592;2023-12-20T10:08:50;16.57;;;10.33;;
9034;SDS011;4552;43.422;24.592;2023-12-20T10:11:18;17.93;;;10.30;;
9034;SDS011;4552;43.422;24.592;2023-12-20T10:13:46;12.43;;;9.53;;
9034;SDS011;4552;43.422;24.592;2023-12-20T10:16:16;12.77;;;8.77;;
9034;SDS011;4552;43.422;24.592;2023-12-20T10:18:43;13.07;;;9.00;;
9034;SDS011;4552;43.422;24.592;2023-12-20T10:21:12;13.10;;;8.60;;
9034;SDS011;4552;43.422;24.592;2023-12-20T10:23:38;13.27;;;9.40;;
9034;SDS011;4552;43.422;24.592;2023-12-20T10:26:06;12.43;;;8.73;;
9034;SDS011;4552;43.422;24.592;2023-12-20T10:28:33;12.80;;;9.30;;
9034;SDS011;4552;43.422;24.592;2023-12-20T10:31:00;15.10;;;9.40;;
9034;SDS011;4552;43.422;24.592;2023-12-20T10:33:30;14.37;;;9.10;;
9034;SDS011;4552;43.422;24.592;2023-12-20T10:35:57;16.00;;;9.03;;
9034;SDS011;4552;43.422;24.592;2023-12-20T10:38:24;10.73;;;8.50;;
9034;SDS011;4552;43.422;24.592;2023-12-20T10:40:52;13.37;;;9.30;;
9034;SDS011;4552;43.422;24.592;2023-12-20T10:43:23;10.37;;;8.23;;
9034;SDS011;4552;43.422;24.592;2023-12-20T10:45:52;14.60;;;9.90;;
9034;SDS011;4552;43.422;24.592;2023-12-20T10:48:21;13.57;;;9.30;;
9034;SDS011;4552;43.422;24.592;2023-12-20T10:50:55;14.93;;;10.17;;
9034;SDS011;4552;43.422;24.592;2023-12-20T10:53:23;12.93;;;9.03;;
9034;SDS011;4552;43.422;24.592;2023-12-20T10:55:51;13.67;;;9.60;;
9034;SDS011;4552;43.422;24.592;2023-12-20T10:58:21;13.03;;;8.70;;
9034;SDS011;4552;43.422;24.592;2023-12-20T11:00:50;11.30;;;7.10;;
9034;SDS011;4552;43.422;24.592;2023-12-20T11:03:26;16.73;;;7.93;;
9034;SDS011;4552;43.422;24.592;2023-12-20T18:53:49;22.83;;;14.73;;
9034;SDS011;4552;43.422;24.592;2023-12-20T18:56:18;28.40;;;15.50;;
9034;SDS011;4552;43.422;24.592;2023-12-20T18:58:44;29.60;;;17.13;;
9034;SDS011;4552;43.422;24.592;2023-12-20T19:01:11;29.53;;;16.17;;
9034;SDS011;4552;43.422;24.592;2023-12-20T19:03:39;23.67;;;15.17;;
9034;SDS011;4552;43.422;24.592;2023-12-20T19:33:01;36.17;;;17.17;;
9034;SDS011;4552;43.422;24.592;2023-12-20T19:35:28;28.73;;;16.00;;
9034;SDS011;4552;43.422;24.592;2023-12-20T19:44:12;33.00;;;18.43;;
9034;SDS011;4552;43.422;24.592;2023-12-20T19:46:42;24.23;;;15.40;;
9034;SDS011;4552;43.422;24.592;2023-12-20T19:49:10;28.83;;;14.83;;
9034;SDS011;4552;43.422;24.592;2023-12-20T23:59:42;9.20;;;6.23;;
